Terminal Aerodrome Forecast
Issued by NWS Buffalo, NY

Home | Current Version | Previous Version | Text Only | Print | Product List | Glossary On
Versions: 1 2 3 4 5 6 7 8 9 10 11 12 13 14 15 16 17 18 19 20 21 22 23 24
950
FTUS41 KBUF 260233 AAA
TAFART
TAF AMD
KART 260233Z 2603/2624 19005KT P6SM OVC120
     FM260700 23004KT P6SM BKN050
     FM261300 28004KT P6SM SCT250
     FM261700 27009KT P6SM SCT250
     FM262200 23010KT P6SM SCT250=

USA.gov is the U.S. government's official web portal to all federal, state and local government web resources and services.